PASD

Details ICAO PASD (SDP)
Name SAND POINT
Region USA (Alaska)
Timezone Unknown (UTC+0.0)
Plans Departing 11
Arriving 10
Stats Elevation 21 ft / 6 m (AMSL)
Location 55.315041° -160.522670°
Runways 1
Magnetic Variation 11.554° E
Sunrise 2018-05-24 14:19:23 UTC / 2018-05-24 14:19:23 Local
Sunset 2018-05-25 07:01:26 UTC / 2018-05-25 07:01:26 Local
Advertisement - Login to hide

Runways

ID Width Length Bearing (true) Bearing (mag) Surface Threshold Offset Overrun Length
13 150 ft / 46 m 3,991 ft / 1,216 m 148.86° 137.31° Asphalt 0 ft / 0 m 0 ft / 0 m
31 150 ft / 46 m 3,991 ft / 1,216 m 328.86° 317.31° Asphalt 0 ft / 0 m 0 ft / 0 m

Map

Weather


0- 5 10 15 20 25 30 35+ Temperature / ° C

Clouds and Precipitation
Forecast for 2018-05-24 18:00 UTC. Updated 3 hours ago

Ground ~20,000 ft ~40,000 ft Winds

METAR

PASD 242007Z 05005KT 10SM BKN024 BKN034 BKN044 07/03 A2957 RMK AO2 PNO $

TAF

TAF PASD 241732Z 2418/2518 VRB04KT P6SM VCSH FEW006 BKN035 FM251500 35006KT P6SM -SHRA SCT010 BKN025 AMD LTD TO CLD VIS AND WIND

Frequencies

Recorded 134.85 MHz AWOS 3
Unicom 122.80 MHz UNICOM
Unicom 122.30 MHz CTAF
Clearance 122.30 MHz CLNC DEL
Warning: Do not use this data for real-world aviation or navigation. No guarantee of current accuracy is given.